sensor_id;sensor_type;location;lat;lon;timestamp;P1;durP1;ratioP1;P2;durP2;ratioP2
32427;SDS011;18882;50.952;4.366;2022-07-01T00:01:35;15.95;;;6.25;;
32427;SDS011;18882;50.952;4.366;2022-07-01T00:04:01;26.33;;;7.15;;
32427;SDS011;18882;50.952;4.366;2022-07-01T00:06:27;26.20;;;8.20;;
32427;SDS011;18882;50.952;4.366;2022-07-01T00:08:53;21.95;;;7.10;;
32427;SDS011;18882;50.952;4.366;2022-07-01T00:11:19;17.42;;;6.72;;
32427;SDS011;18882;50.952;4.366;2022-07-01T00:13:45;18.63;;;7.15;;
32427;SDS011;18882;50.952;4.366;2022-07-01T00:16:10;18.98;;;6.57;;
32427;SDS011;18882;50.952;4.366;2022-07-01T00:18:36;21.15;;;7.50;;
32427;SDS011;18882;50.952;4.366;2022-07-01T00:21:02;20.55;;;7.05;;
32427;SDS011;18882;50.952;4.366;2022-07-01T00:23:28;23.08;;;6.85;;
32427;SDS011;18882;50.952;4.366;2022-07-01T00:25:53;17.35;;;7.15;;
32427;SDS011;18882;50.952;4.366;2022-07-01T00:28:19;17.20;;;6.90;;
32427;SDS011;18882;50.952;4.366;2022-07-01T00:30:45;18.05;;;6.40;;
32427;SDS011;18882;50.952;4.366;2022-07-01T00:33:11;19.35;;;6.93;;
32427;SDS011;18882;50.952;4.366;2022-07-01T00:35:37;26.52;;;6.93;;
32427;SDS011;18882;50.952;4.366;2022-07-01T00:38:03;21.15;;;7.35;;
32427;SDS011;18882;50.952;4.366;2022-07-01T00:40:29;24.33;;;7.35;;
32427;SDS011;18882;50.952;4.366;2022-07-01T00:42:55;19.17;;;7.15;;
32427;SDS011;18882;50.952;4.366;2022-07-01T00:45:20;20.95;;;6.95;;
32427;SDS011;18882;50.952;4.366;2022-07-01T00:47:46;24.08;;;7.10;;
32427;SDS011;18882;50.952;4.366;2022-07-01T00:50:13;21.27;;;6.57;;
32427;SDS011;18882;50.952;4.366;2022-07-01T00:52:40;19.63;;;6.53;;
32427;SDS011;18882;50.952;4.366;2022-07-01T00:55:08;17.67;;;6.43;;
32427;SDS011;18882;50.952;4.366;2022-07-01T00:57:37;20.73;;;6.85;;
32427;SDS011;18882;50.952;4.366;2022-07-01T01:00:04;19.02;;;6.22;;
32427;SDS011;18882;50.952;4.366;2022-07-01T01:02:32;27.30;;;6.60;;
32427;SDS011;18882;50.952;4.366;2022-07-01T01:04:58;18.83;;;6.07;;
32427;SDS011;18882;50.952;4.366;2022-07-01T01:07:24;18.83;;;6.97;;
32427;SDS011;18882;50.952;4.366;2022-07-01T01:09:50;19.40;;;6.95;;
32427;SDS011;18882;50.952;4.366;2022-07-01T01:12:16;23.92;;;7.07;;
32427;SDS011;18882;50.952;4.366;2022-07-01T01:14:51;17.15;;;6.22;;
32427;SDS011;18882;50.952;4.366;2022-07-01T01:17:18;21.67;;;6.88;;
32427;SDS011;18882;50.952;4.366;2022-07-01T01:19:44;20.23;;;6.78;;
32427;SDS011;18882;50.952;4.366;2022-07-01T01:22:11;18.50;;;6.53;;
32427;SDS011;18882;50.952;4.366;2022-07-01T01:24:40;18.73;;;6.63;;
32427;SDS011;18882;50.952;4.366;2022-07-01T01:27:06;18.55;;;5.93;;
32427;SDS011;18882;50.952;4.366;2022-07-01T01:29:32;17.02;;;6.25;;
32427;SDS011;18882;50.952;4.366;2022-07-01T01:32:01;16.00;;;5.75;;
32427;SDS011;18882;50.952;4.366;2022-07-01T01:34:27;15.85;;;6.53;;
32427;SDS011;18882;50.952;4.366;2022-07-01T01:36:53;20.73;;;6.57;;
32427;SDS011;18882;50.952;4.366;2022-07-01T01:39:19;22.67;;;6.88;;
32427;SDS011;18882;50.952;4.366;2022-07-01T01:41:46;16.95;;;5.50;;
32427;SDS011;18882;50.952;4.366;2022-07-01T01:44:12;14.48;;;5.65;;
32427;SDS011;18882;50.952;4.366;2022-07-01T01:46:38;16.67;;;6.03;;
32427;SDS011;18882;50.952;4.366;2022-07-01T01:49:05;16.92;;;5.57;;
32427;SDS011;18882;50.952;4.366;2022-07-01T01:51:31;17.67;;;7.40;;
32427;SDS011;18882;50.952;4.366;2022-07-01T01:53:57;17.60;;;5.82;;
32427;SDS011;18882;50.952;4.366;2022-07-01T01:56:23;20.70;;;6.68;;
32427;SDS011;18882;50.952;4.366;2022-07-01T01:58:49;15.90;;;6.57;;
32427;SDS011;18882;50.952;4.366;2022-07-01T02:01:15;19.88;;;6.88;;
32427;SDS011;18882;50.952;4.366;2022-07-01T02:03:42;13.77;;;5.38;;
32427;SDS011;18882;50.952;4.366;2022-07-01T02:06:10;15.00;;;6.40;;
32427;SDS011;18882;50.952;4.366;2022-07-01T02:08:40;14.02;;;5.90;;
32427;SDS011;18882;50.952;4.366;2022-07-01T02:11:06;20.90;;;6.95;;
32427;SDS011;18882;50.952;4.366;2022-07-01T02:13:32;19.95;;;7.05;;
32427;SDS011;18882;50.952;4.366;2022-07-01T02:15:58;19.15;;;6.38;;
32427;SDS011;18882;50.952;4.366;2022-07-01T02:18:24;14.68;;;6.13;;
32427;SDS011;18882;50.952;4.366;2022-07-01T02:20:50;19.50;;;6.63;;
32427;SDS011;18882;50.952;4.366;2022-07-01T02:23:16;17.35;;;6.53;;
32427;SDS011;18882;50.952;4.366;2022-07-01T02:25:42;15.02;;;6.95;;
32427;SDS011;18882;50.952;4.366;2022-07-01T02:28:08;17.70;;;6.38;;
32427;SDS011;18882;50.952;4.366;2022-07-01T02:30:35;22.10;;;7.13;;
32427;SDS011;18882;50.952;4.366;2022-07-01T02:33:02;17.20;;;7.25;;
32427;SDS011;18882;50.952;4.366;2022-07-01T02:35:28;14.55;;;6.55;;
32427;SDS011;18882;50.952;4.366;2022-07-01T02:37:54;14.38;;;6.70;;
32427;SDS011;18882;50.952;4.366;2022-07-01T02:40:20;25.77;;;7.00;;
32427;SDS011;18882;50.952;4.366;2022-07-01T02:42:46;20.80;;;7.43;;
32427;SDS011;18882;50.952;4.366;2022-07-01T02:45:12;18.63;;;7.22;;
32427;SDS011;18882;50.952;4.366;2022-07-01T02:47:38;22.58;;;7.78;;
32427;SDS011;18882;50.952;4.366;2022-07-01T02:50:06;22.48;;;7.80;;
32427;SDS011;18882;50.952;4.366;2022-07-01T02:52:34;20.42;;;7.68;;
32427;SDS011;18882;50.952;4.366;2022-07-01T02:55:02;18.10;;;7.78;;
32427;SDS011;18882;50.952;4.366;2022-07-01T02:57:28;18.23;;;8.13;;
32427;SDS011;18882;50.952;4.366;2022-07-01T02:59:54;19.33;;;7.40;;
32427;SDS011;18882;50.952;4.366;2022-07-01T03:02:20;18.92;;;7.93;;
32427;SDS011;18882;50.952;4.366;2022-07-01T03:04:46;14.27;;;7.93;;
32427;SDS011;18882;50.952;4.366;2022-07-01T03:07:14;17.13;;;7.13;;
32427;SDS011;18882;50.952;4.366;2022-07-01T03:09:40;20.23;;;9.13;;
32427;SDS011;18882;50.952;4.366;2022-07-01T03:12:07;23.52;;;8.02;;
32427;SDS011;18882;50.952;4.366;2022-07-01T03:14:56;14.93;;;7.38;;
32427;SDS011;18882;50.952;4.366;2022-07-01T03:17:24;17.60;;;8.70;;
32427;SDS011;18882;50.952;4.366;2022-07-01T03:19:50;19.67;;;8.90;;
32427;SDS011;18882;50.952;4.366;2022-07-01T03:22:17;21.83;;;8.20;;
32427;SDS011;18882;50.952;4.366;2022-07-01T03:24:44;20.75;;;8.75;;
32427;SDS011;18882;50.952;4.366;2022-07-01T03:27:09;17.48;;;9.05;;
32427;SDS011;18882;50.952;4.366;2022-07-01T03:29:35;24.20;;;8.93;;
32427;SDS011;18882;50.952;4.366;2022-07-01T03:32:01;25.17;;;9.57;;
32427;SDS011;18882;50.952;4.366;2022-07-01T03:34:27;24.02;;;9.63;;
32427;SDS011;18882;50.952;4.366;2022-07-01T03:36:53;20.00;;;9.98;;
32427;SDS011;18882;50.952;4.366;2022-07-01T03:39:19;20.58;;;10.05;;
32427;SDS011;18882;50.952;4.366;2022-07-01T03:41:45;21.33;;;10.23;;
32427;SDS011;18882;50.952;4.366;2022-07-01T03:44:11;28.45;;;10.73;;
32427;SDS011;18882;50.952;4.366;2022-07-01T03:46:36;23.55;;;10.68;;
32427;SDS011;18882;50.952;4.366;2022-07-01T03:49:02;22.95;;;10.70;;
32427;SDS011;18882;50.952;4.366;2022-07-01T03:51:29;19.98;;;10.27;;
32427;SDS011;18882;50.952;4.366;2022-07-01T03:53:55;25.10;;;10.80;;
32427;SDS011;18882;50.952;4.366;2022-07-01T03:56:39;26.67;;;11.50;;
32427;SDS011;18882;50.952;4.366;2022-07-01T03:59:05;22.00;;;11.13;;
32427;SDS011;18882;50.952;4.366;2022-07-01T04:01:30;31.42;;;12.05;;
32427;SDS011;18882;50.952;4.366;2022-07-01T04:03:56;23.00;;;10.45;;
32427;SDS011;18882;50.952;4.366;2022-07-01T04:06:22;22.85;;;11.43;;
32427;SDS011;18882;50.952;4.366;2022-07-01T04:08:48;27.90;;;11.30;;
32427;SDS011;18882;50.952;4.366;2022-07-01T04:11:14;20.52;;;10.50;;
32427;SDS011;18882;50.952;4.366;2022-07-01T04:13:40;25.80;;;10.98;;
32427;SDS011;18882;50.952;4.366;2022-07-01T04:16:09;26.38;;;10.43;;
32427;SDS011;18882;50.952;4.366;2022-07-01T04:18:35;22.65;;;10.27;;
32427;SDS011;18882;50.952;4.366;2022-07-01T04:21:01;22.30;;;10.48;;
32427;SDS011;18882;50.952;4.366;2022-07-01T04:23:45;23.60;;;10.17;;
32427;SDS011;18882;50.952;4.366;2022-07-01T04:26:11;20.23;;;10.48;;
32427;SDS011;18882;50.952;4.366;2022-07-01T04:28:36;22.77;;;9.25;;
32427;SDS011;18882;50.952;4.366;2022-07-01T04:31:02;18.02;;;9.75;;
32427;SDS011;18882;50.952;4.366;2022-07-01T04:33:28;23.02;;;9.73;;
32427;SDS011;18882;50.952;4.366;2022-07-01T04:35:53;20.67;;;9.45;;
32427;SDS011;18882;50.952;4.366;2022-07-01T04:38:19;24.30;;;9.55;;
32427;SDS011;18882;50.952;4.366;2022-07-01T04:40:45;19.67;;;9.50;;
32427;SDS011;18882;50.952;4.366;2022-07-01T04:43:30;24.13;;;9.90;;
32427;SDS011;18882;50.952;4.366;2022-07-01T04:45:56;24.40;;;9.77;;
32427;SDS011;18882;50.952;4.366;2022-07-01T04:48:21;22.08;;;9.80;;
32427;SDS011;18882;50.952;4.366;2022-07-01T04:50:47;21.60;;;8.82;;
32427;SDS011;18882;50.952;4.366;2022-07-01T04:53:13;15.35;;;8.18;;
32427;SDS011;18882;50.952;4.366;2022-07-01T04:55:39;15.30;;;9.25;;
32427;SDS011;18882;50.952;4.366;2022-07-01T04:58:05;18.25;;;9.00;;
32427;SDS011;18882;50.952;4.366;2022-07-01T05:00:31;21.50;;;8.57;;
32427;SDS011;18882;50.952;4.366;2022-07-01T05:02:57;17.73;;;9.00;;
32427;SDS011;18882;50.952;4.366;2022-07-01T05:05:23;17.13;;;8.52;;
32427;SDS011;18882;50.952;4.366;2022-07-01T05:07:48;16.70;;;7.63;;
32427;SDS011;18882;50.952;4.366;2022-07-01T05:10:14;23.08;;;9.20;;
32427;SDS011;18882;50.952;4.366;2022-07-01T05:12:40;16.27;;;7.90;;
32427;SDS011;18882;50.952;4.366;2022-07-01T05:15:06;16.95;;;7.10;;
32427;SDS011;18882;50.952;4.366;2022-07-01T05:17:32;18.40;;;7.57;;
32427;SDS011;18882;50.952;4.366;2022-07-01T05:20:17;15.27;;;7.28;;
32427;SDS011;18882;50.952;4.366;2022-07-01T05:23:01;13.00;;;6.27;;
32427;SDS011;18882;50.952;4.366;2022-07-01T05:25:26;10.27;;;6.25;;
32427;SDS011;18882;50.952;4.366;2022-07-01T05:27:52;12.30;;;6.05;;
32427;SDS011;18882;50.952;4.366;2022-07-01T05:30:19;10.18;;;5.47;;
32427;SDS011;18882;50.952;4.366;2022-07-01T05:32:45;16.83;;;5.68;;
32427;SDS011;18882;50.952;4.366;2022-07-01T05:35:11;11.65;;;4.82;;
32427;SDS011;18882;50.952;4.366;2022-07-01T05:37:37;8.95;;;4.78;;
32427;SDS011;18882;50.952;4.366;2022-07-01T05:40:03;11.95;;;4.90;;
32427;SDS011;18882;50.952;4.366;2022-07-01T05:42:29;14.13;;;4.97;;
32427;SDS011;18882;50.952;4.366;2022-07-01T05:44:54;11.32;;;4.95;;
32427;SDS011;18882;50.952;4.366;2022-07-01T05:47:20;11.70;;;4.32;;
32427;SDS011;18882;50.952;4.366;2022-07-01T05:49:46;10.25;;;4.57;;
32427;SDS011;18882;50.952;4.366;2022-07-01T05:52:11;11.50;;;4.28;;
32427;SDS011;18882;50.952;4.366;2022-07-01T05:54:37;8.68;;;3.92;;
32427;SDS011;18882;50.952;4.366;2022-07-01T05:57:03;8.80;;;4.13;;
32427;SDS011;18882;50.952;4.366;2022-07-01T05:59:29;4.70;;;3.72;;
32427;SDS011;18882;50.952;4.366;2022-07-01T06:01:54;6.47;;;3.35;;
32427;SDS011;18882;50.952;4.366;2022-07-01T06:04:20;8.60;;;2.78;;
32427;SDS011;18882;50.952;4.366;2022-07-01T06:06:46;6.50;;;2.75;;
32427;SDS011;18882;50.952;4.366;2022-07-01T06:09:11;7.90;;;2.88;;
32427;SDS011;18882;50.952;4.366;2022-07-01T06:11:37;13.82;;;2.95;;
32427;SDS011;18882;50.952;4.366;2022-07-01T06:14:03;5.60;;;2.72;;
32427;SDS011;18882;50.952;4.366;2022-07-01T06:16:28;3.03;;;2.30;;
32427;SDS011;18882;50.952;4.366;2022-07-01T06:18:54;6.03;;;2.45;;
32427;SDS011;18882;50.952;4.366;2022-07-01T06:21:20;12.20;;;2.35;;
32427;SDS011;18882;50.952;4.366;2022-07-01T06:23:45;6.88;;;2.22;;
32427;SDS011;18882;50.952;4.366;2022-07-01T06:26:11;5.55;;;1.98;;
32427;SDS011;18882;50.952;4.366;2022-07-01T06:28:37;5.63;;;2.00;;
32427;SDS011;18882;50.952;4.366;2022-07-01T06:31:03;7.78;;;1.70;;
32427;SDS011;18882;50.952;4.366;2022-07-01T06:33:28;4.03;;;1.48;;
32427;SDS011;18882;50.952;4.366;2022-07-01T06:35:56;4.47;;;1.45;;
32427;SDS011;18882;50.952;4.366;2022-07-01T06:38:22;2.38;;;1.50;;
32427;SDS011;18882;50.952;4.366;2022-07-01T06:40:48;11.05;;;2.17;;
32427;SDS011;18882;50.952;4.366;2022-07-01T06:43:34;5.65;;;1.55;;
32427;SDS011;18882;50.952;4.366;2022-07-01T06:46:00;2.42;;;1.23;;
32427;SDS011;18882;50.952;4.366;2022-07-01T06:48:26;6.60;;;1.73;;
32427;SDS011;18882;50.952;4.366;2022-07-01T06:50:52;8.90;;;1.60;;
32427;SDS011;18882;50.952;4.366;2022-07-01T06:53:18;4.20;;;1.15;;
32427;SDS011;18882;50.952;4.366;2022-07-01T06:55:43;2.90;;;1.13;;
32427;SDS011;18882;50.952;4.366;2022-07-01T06:58:09;3.63;;;1.27;;
32427;SDS011;18882;50.952;4.366;2022-07-01T07:00:35;6.22;;;1.15;;
32427;SDS011;18882;50.952;4.366;2022-07-01T07:03:01;5.40;;;1.42;;
32427;SDS011;18882;50.952;4.366;2022-07-01T07:05:27;9.77;;;1.40;;
32427;SDS011;18882;50.952;4.366;2022-07-01T07:07:55;7.10;;;2.13;;
32427;SDS011;18882;50.952;4.366;2022-07-01T07:10:20;5.50;;;1.20;;
32427;SDS011;18882;50.952;4.366;2022-07-01T07:12:46;3.22;;;1.35;;
32427;SDS011;18882;50.952;4.366;2022-07-01T07:15:12;3.90;;;0.90;;
32427;SDS011;18882;50.952;4.366;2022-07-01T07:17:37;4.20;;;1.50;;
32427;SDS011;18882;50.952;4.366;2022-07-01T07:20:03;4.43;;;1.30;;
32427;SDS011;18882;50.952;4.366;2022-07-01T07:22:29;4.60;;;0.95;;
32427;SDS011;18882;50.952;4.366;2022-07-01T07:24:55;5.70;;;1.08;;
32427;SDS011;18882;50.952;4.366;2022-07-01T07:27:21;4.63;;;1.05;;
32427;SDS011;18882;50.952;4.366;2022-07-01T07:29:46;6.35;;;1.10;;
32427;SDS011;18882;50.952;4.366;2022-07-01T07:32:12;5.65;;;0.80;;
32427;SDS011;18882;50.952;4.366;2022-07-01T07:34:38;4.07;;;0.77;;
32427;SDS011;18882;50.952;4.366;2022-07-01T07:37:03;1.05;;;0.55;;
32427;SDS011;18882;50.952;4.366;2022-07-01T07:39:29;2.63;;;1.00;;
32427;SDS011;18882;50.952;4.366;2022-07-01T07:41:55;7.80;;;1.02;;
32427;SDS011;18882;50.952;4.366;2022-07-01T07:44:21;6.55;;;1.08;;
32427;SDS011;18882;50.952;4.366;2022-07-01T07:46:46;3.65;;;0.95;;
32427;SDS011;18882;50.952;4.366;2022-07-01T07:49:12;2.95;;;1.23;;
32427;SDS011;18882;50.952;4.366;2022-07-01T07:51:38;4.95;;;0.88;;
32427;SDS011;18882;50.952;4.366;2022-07-01T07:54:03;4.45;;;0.60;;
32427;SDS011;18882;50.952;4.366;2022-07-01T07:56:29;3.97;;;0.82;;
32427;SDS011;18882;50.952;4.366;2022-07-01T07:58:55;2.63;;;0.70;;
32427;SDS011;18882;50.952;4.366;2022-07-01T08:01:21;2.92;;;0.68;;
32427;SDS011;18882;50.952;4.366;2022-07-01T08:03:47;2.50;;;0.88;;
32427;SDS011;18882;50.952;4.366;2022-07-01T08:06:13;1.73;;;0.55;;
32427;SDS011;18882;50.952;4.366;2022-07-01T08:08:38;1.98;;;0.70;;
32427;SDS011;18882;50.952;4.366;2022-07-01T08:11:04;6.00;;;0.70;;
32427;SDS011;18882;50.952;4.366;2022-07-01T08:13:30;7.03;;;0.88;;
32427;SDS011;18882;50.952;4.366;2022-07-01T08:15:56;4.55;;;0.57;;
32427;SDS011;18882;50.952;4.366;2022-07-01T08:18:22;3.58;;;1.38;;
32427;SDS011;18882;50.952;4.366;2022-07-01T08:20:48;3.15;;;0.65;;
32427;SDS011;18882;50.952;4.366;2022-07-01T08:23:17;2.80;;;0.80;;
32427;SDS011;18882;50.952;4.366;2022-07-01T08:25:44;4.38;;;0.90;;
32427;SDS011;18882;50.952;4.366;2022-07-01T08:28:09;4.20;;;0.75;;
32427;SDS011;18882;50.952;4.366;2022-07-01T08:30:35;6.43;;;1.15;;
32427;SDS011;18882;50.952;4.366;2022-07-01T08:33:01;6.07;;;1.08;;
32427;SDS011;18882;50.952;4.366;2022-07-01T08:35:27;3.70;;;0.90;;
32427;SDS011;18882;50.952;4.366;2022-07-01T08:37:53;1.67;;;0.80;;
32427;SDS011;18882;50.952;4.366;2022-07-01T08:40:18;3.72;;;0.95;;
32427;SDS011;18882;50.952;4.366;2022-07-01T08:42:48;1.55;;;0.88;;
32427;SDS011;18882;50.952;4.366;2022-07-01T08:45:15;3.40;;;1.00;;
32427;SDS011;18882;50.952;4.366;2022-07-01T08:47:51;4.72;;;1.00;;
32427;SDS011;18882;50.952;4.366;2022-07-01T08:50:20;3.55;;;0.75;;
32427;SDS011;18882;50.952;4.366;2022-07-01T08:52:46;8.10;;;1.05;;
32427;SDS011;18882;50.952;4.366;2022-07-01T08:55:12;2.10;;;0.45;;
32427;SDS011;18882;50.952;4.366;2022-07-01T08:57:37;1.67;;;0.60;;
32427;SDS011;18882;50.952;4.366;2022-07-01T09:00:06;2.35;;;0.50;;
32427;SDS011;18882;50.952;4.366;2022-07-01T09:02:49;2.28;;;0.55;;
32427;SDS011;18882;50.952;4.366;2022-07-01T09:05:17;1.15;;;0.30;;
32427;SDS011;18882;50.952;4.366;2022-07-01T09:07:43;5.05;;;0.55;;
32427;SDS011;18882;50.952;4.366;2022-07-01T09:10:15;2.20;;;0.47;;
32427;SDS011;18882;50.952;4.366;2022-07-01T09:12:43;0.30;;;0.25;;
32427;SDS011;18882;50.952;4.366;2022-07-01T09:15:45;2.35;;;0.50;;
32427;SDS011;18882;50.952;4.366;2022-07-01T09:20:44;1.90;;;0.60;;
32427;SDS011;18882;50.952;4.366;2022-07-01T09:23:14;1.60;;;0.40;;
32427;SDS011;18882;50.952;4.366;2022-07-01T09:25:44;1.77;;;0.45;;
32427;SDS011;18882;50.952;4.366;2022-07-01T09:28:13;1.95;;;0.70;;
32427;SDS011;18882;50.952;4.366;2022-07-01T09:30:44;2.08;;;0.45;;
32427;SDS011;18882;50.952;4.366;2022-07-01T09:33:15;5.38;;;0.80;;
32427;SDS011;18882;50.952;4.366;2022-07-01T09:35:43;1.42;;;0.55;;
32427;SDS011;18882;50.952;4.366;2022-07-01T09:38:14;1.75;;;0.52;;
32427;SDS011;18882;50.952;4.366;2022-07-01T09:40:50;6.40;;;0.70;;
32427;SDS011;18882;50.952;4.366;2022-07-01T09:43:20;1.27;;;0.68;;
32427;SDS011;18882;50.952;4.366;2022-07-01T09:45:54;2.65;;;0.57;;
32427;SDS011;18882;50.952;4.366;2022-07-01T09:48:25;1.83;;;0.50;;
32427;SDS011;18882;50.952;4.366;2022-07-01T09:51:06;2.53;;;0.68;;
32427;SDS011;18882;50.952;4.366;2022-07-01T09:53:33;2.72;;;1.00;;
32427;SDS011;18882;50.952;4.366;2022-07-01T09:55:59;5.88;;;0.75;;
32427;SDS011;18882;50.952;4.366;2022-07-01T09:58:25;1.65;;;0.50;;
32427;SDS011;18882;50.952;4.366;2022-07-01T10:00:54;1.08;;;0.55;;
32427;SDS011;18882;50.952;4.366;2022-07-01T10:03:21;1.50;;;0.40;;
32427;SDS011;18882;50.952;4.366;2022-07-01T10:13:46;4.75;;;0.60;;
32427;SDS011;18882;50.952;4.366;2022-07-01T10:16:12;2.97;;;0.50;;
32427;SDS011;18882;50.952;4.366;2022-07-01T10:18:39;4.20;;;0.75;;
32427;SDS011;18882;50.952;4.366;2022-07-01T10:21:05;0.93;;;0.93;;
32427;SDS011;18882;50.952;4.366;2022-07-01T10:23:38;2.53;;;0.50;;
32427;SDS011;18882;50.952;4.366;2022-07-01T10:26:07;2.75;;;0.40;;
32427;SDS011;18882;50.952;4.366;2022-07-01T10:31:12;2.72;;;0.30;;
32427;SDS011;18882;50.952;4.366;2022-07-01T10:33:49;4.35;;;0.70;;
32427;SDS011;18882;50.952;4.366;2022-07-01T10:41:27;1.50;;;0.40;;
32427;SDS011;18882;50.952;4.366;2022-07-01T10:43:54;0.68;;;0.30;;
32427;SDS011;18882;50.952;4.366;2022-07-01T10:49:17;1.08;;;0.63;;
32427;SDS011;18882;50.952;4.366;2022-07-01T10:52:10;3.42;;;0.63;;
32427;SDS011;18882;50.952;4.366;2022-07-01T10:59:43;2.53;;;0.55;;
32427;SDS011;18882;50.952;4.366;2022-07-01T11:02:29;1.27;;;0.30;;
32427;SDS011;18882;50.952;4.366;2022-07-01T11:05:00;0.93;;;0.40;;
32427;SDS011;18882;50.952;4.366;2022-07-01T11:07:30;0.77;;;0.30;;
32427;SDS011;18882;50.952;4.366;2022-07-01T11:09:58;1.25;;;0.40;;
32427;SDS011;18882;50.952;4.366;2022-07-01T11:12:25;3.25;;;0.32;;
32427;SDS011;18882;50.952;4.366;2022-07-01T11:14:52;2.45;;;0.40;;
32427;SDS011;18882;50.952;4.366;2022-07-01T11:17:21;2.13;;;0.43;;
32427;SDS011;18882;50.952;4.366;2022-07-01T11:19:51;1.52;;;0.30;;
32427;SDS011;18882;50.952;4.366;2022-07-01T11:22:21;2.38;;;0.40;;
32427;SDS011;18882;50.952;4.366;2022-07-01T11:24:55;4.53;;;0.60;;
32427;SDS011;18882;50.952;4.366;2022-07-01T11:27:24;4.35;;;0.47;;
32427;SDS011;18882;50.952;4.366;2022-07-01T11:29:54;1.15;;;0.30;;
32427;SDS011;18882;50.952;4.366;2022-07-01T11:32:25;2.58;;;0.63;;
32427;SDS011;18882;50.952;4.366;2022-07-01T11:34:51;3.20;;;0.40;;
32427;SDS011;18882;50.952;4.366;2022-07-01T11:37:17;2.15;;;0.60;;
32427;SDS011;18882;50.952;4.366;2022-07-01T11:42:34;5.40;;;0.30;;
32427;SDS011;18882;50.952;4.366;2022-07-01T11:45:01;1.17;;;0.30;;
32427;SDS011;18882;50.952;4.366;2022-07-01T11:47:27;2.45;;;0.32;;
32427;SDS011;18882;50.952;4.366;2022-07-01T11:49:53;2.83;;;0.52;;
32427;SDS011;18882;50.952;4.366;2022-07-01T11:52:20;2.50;;;0.47;;
32427;SDS011;18882;50.952;4.366;2022-07-01T11:54:47;0.85;;;0.28;;
32427;SDS011;18882;50.952;4.366;2022-07-01T11:57:15;2.45;;;0.63;;
32427;SDS011;18882;50.952;4.366;2022-07-01T11:59:50;5.22;;;0.40;;
32427;SDS011;18882;50.952;4.366;2022-07-01T12:02:17;1.23;;;0.20;;
32427;SDS011;18882;50.952;4.366;2022-07-01T12:04:47;1.42;;;0.40;;
32427;SDS011;18882;50.952;4.366;2022-07-01T12:07:14;1.48;;;0.30;;
32427;SDS011;18882;50.952;4.366;2022-07-01T12:09:41;0.63;;;0.22;;
32427;SDS011;18882;50.952;4.366;2022-07-01T12:12:14;1.45;;;0.45;;
32427;SDS011;18882;50.952;4.366;2022-07-01T12:14:57;4.07;;;0.40;;
32427;SDS011;18882;50.952;4.366;2022-07-01T12:17:24;1.52;;;0.28;;
32427;SDS011;18882;50.952;4.366;2022-07-01T12:19:52;1.38;;;0.40;;
32427;SDS011;18882;50.952;4.366;2022-07-01T12:22:23;1.83;;;0.25;;
32427;SDS011;18882;50.952;4.366;2022-07-01T12:24:51;1.45;;;0.30;;
32427;SDS011;18882;50.952;4.366;2022-07-01T12:27:21;1.17;;;0.40;;
32427;SDS011;18882;50.952;4.366;2022-07-01T12:29:49;2.40;;;0.45;;
32427;SDS011;18882;50.952;4.366;2022-07-01T12:32:18;5.28;;;0.30;;
32427;SDS011;18882;50.952;4.366;2022-07-01T12:34:52;1.10;;;0.20;;
32427;SDS011;18882;50.952;4.366;2022-07-01T12:37:29;0.68;;;0.40;;
32427;SDS011;18882;50.952;4.366;2022-07-01T12:40:06;1.35;;;0.30;;
32427;SDS011;18882;50.952;4.366;2022-07-01T12:42:36;1.25;;;0.30;;
32427;SDS011;18882;50.952;4.366;2022-07-01T12:45:08;3.13;;;0.40;;
32427;SDS011;18882;50.952;4.366;2022-07-01T12:47:37;1.25;;;0.50;;
32427;SDS011;18882;50.952;4.366;2022-07-01T12:50:27;0.32;;;0.32;;
32427;SDS011;18882;50.952;4.366;2022-07-01T12:55:22;1.08;;;0.35;;
32427;SDS011;18882;50.952;4.366;2022-07-01T12:57:52;1.58;;;0.55;;
32427;SDS011;18882;50.952;4.366;2022-07-01T13:00:20;2.10;;;0.60;;
32427;SDS011;18882;50.952;4.366;2022-07-01T13:02:50;0.77;;;0.45;;
32427;SDS011;18882;50.952;4.366;2022-07-01T13:05:17;0.65;;;0.28;;
32427;SDS011;18882;50.952;4.366;2022-07-01T13:07:43;0.28;;;0.20;;
32427;SDS011;18882;50.952;4.366;2022-07-01T13:10:08;0.50;;;0.40;;
32427;SDS011;18882;50.952;4.366;2022-07-01T13:12:34;0.65;;;0.25;;
32427;SDS011;18882;50.952;4.366;2022-07-01T13:15:00;2.75;;;0.25;;
32427;SDS011;18882;50.952;4.366;2022-07-01T13:17:26;1.13;;;0.30;;
32427;SDS011;18882;50.952;4.366;2022-07-01T13:19:52;1.48;;;0.35;;
32427;SDS011;18882;50.952;4.366;2022-07-01T13:22:18;2.83;;;0.50;;
32427;SDS011;18882;50.952;4.366;2022-07-01T13:24:45;6.20;;;0.30;;
32427;SDS011;18882;50.952;4.366;2022-07-01T13:27:11;2.78;;;0.30;;
32427;SDS011;18882;50.952;4.366;2022-07-01T13:29:36;3.53;;;0.30;;
32427;SDS011;18882;50.952;4.366;2022-07-01T13:32:02;1.98;;;0.30;;
32427;SDS011;18882;50.952;4.366;2022-07-01T13:34:29;0.90;;;0.35;;
32427;SDS011;18882;50.952;4.366;2022-07-01T13:36:55;2.08;;;0.30;;
32427;SDS011;18882;50.952;4.366;2022-07-01T13:39:21;0.52;;;0.30;;
32427;SDS011;18882;50.952;4.366;2022-07-01T13:41:47;2.25;;;0.40;;
32427;SDS011;18882;50.952;4.366;2022-07-01T13:44:14;1.65;;;0.30;;
32427;SDS011;18882;50.952;4.366;2022-07-01T13:46:39;2.55;;;0.45;;
32427;SDS011;18882;50.952;4.366;2022-07-01T13:49:06;3.80;;;0.43;;
32427;SDS011;18882;50.952;4.366;2022-07-01T13:51:32;1.23;;;0.30;;
32427;SDS011;18882;50.952;4.366;2022-07-01T13:53:58;3.78;;;0.40;;
32427;SDS011;18882;50.952;4.366;2022-07-01T13:56:25;2.10;;;0.75;;
32427;SDS011;18882;50.952;4.366;2022-07-01T13:58:51;2.78;;;0.40;;
32427;SDS011;18882;50.952;4.366;2022-07-01T14:01:18;1.80;;;0.35;;
32427;SDS011;18882;50.952;4.366;2022-07-01T14:03:44;1.58;;;0.60;;
32427;SDS011;18882;50.952;4.366;2022-07-01T14:06:10;1.05;;;0.40;;
32427;SDS011;18882;50.952;4.366;2022-07-01T14:08:35;1.42;;;0.52;;
32427;SDS011;18882;50.952;4.366;2022-07-01T14:11:01;0.70;;;0.30;;
32427;SDS011;18882;50.952;4.366;2022-07-01T14:13:27;4.75;;;0.52;;
32427;SDS011;18882;50.952;4.366;2022-07-01T14:15:52;0.32;;;0.32;;
32427;SDS011;18882;50.952;4.366;2022-07-01T14:18:19;1.17;;;0.50;;
32427;SDS011;18882;50.952;4.366;2022-07-01T14:20:44;0.80;;;0.25;;
32427;SDS011;18882;50.952;4.366;2022-07-01T14:23:10;1.08;;;0.43;;
32427;SDS011;18882;50.952;4.366;2022-07-01T14:25:36;4.60;;;0.52;;
32427;SDS011;18882;50.952;4.366;2022-07-01T14:28:03;1.58;;;0.52;;
32427;SDS011;18882;50.952;4.366;2022-07-01T14:30:29;3.03;;;0.65;;
32427;SDS011;18882;50.952;4.366;2022-07-01T14:32:55;3.55;;;0.73;;
32427;SDS011;18882;50.952;4.366;2022-07-01T14:35:20;1.08;;;0.47;;
32427;SDS011;18882;50.952;4.366;2022-07-01T14:37:46;1.77;;;0.40;;
32427;SDS011;18882;50.952;4.366;2022-07-01T14:40:12;1.30;;;0.40;;
32427;SDS011;18882;50.952;4.366;2022-07-01T14:42:38;0.50;;;0.40;;
32427;SDS011;18882;50.952;4.366;2022-07-01T14:45:05;2.25;;;0.75;;
32427;SDS011;18882;50.952;4.366;2022-07-01T14:47:32;1.90;;;0.60;;
32427;SDS011;18882;50.952;4.366;2022-07-01T14:49:58;1.58;;;0.35;;
32427;SDS011;18882;50.952;4.366;2022-07-01T14:52:24;2.15;;;0.50;;
32427;SDS011;18882;50.952;4.366;2022-07-01T14:54:50;3.08;;;0.43;;
32427;SDS011;18882;50.952;4.366;2022-07-01T14:57:18;3.40;;;0.60;;
32427;SDS011;18882;50.952;4.366;2022-07-01T14:59:44;1.23;;;0.60;;
32427;SDS011;18882;50.952;4.366;2022-07-01T15:02:10;2.80;;;0.50;;
32427;SDS011;18882;50.952;4.366;2022-07-01T15:04:36;2.75;;;0.40;;
32427;SDS011;18882;50.952;4.366;2022-07-01T15:07:05;3.30;;;0.60;;
32427;SDS011;18882;50.952;4.366;2022-07-01T15:09:30;2.67;;;0.52;;
32427;SDS011;18882;50.952;4.366;2022-07-01T15:11:56;3.90;;;0.70;;
32427;SDS011;18882;50.952;4.366;2022-07-01T15:14:22;5.50;;;0.80;;